Report METAR

 

LIPQ - Ronchi Legionari, Italy
Distance from station: SSO 4km
Dati ricevuti: 19/10/2019 11:20
Pioggia leggera, Nuvoloso
Pioggia leggera, Nuvoloso
 Vento da Variabile
Vento: Variabile 7 km/h
Temperatura: 17°C
P.to Rugiada: 17°C
Umidità: 100%
Barometro: 1016 hPa
Summary: Pioggia leggera
Nuvole: Molto nuvoloso
Visibility: 10 km
Cloud details: Molto nuvoloso 610 m
Molto nuvoloso 1829 m
2019/10/19 11:20 LIPQ 191120Z VRB04KT 9999 -RA BKN020 BKN060 17/17 Q1016 RERA
LIVT - Trieste, Italy
Distance from station: SE 27km
Dati ricevuti: 19/10/2019 10:55

 
2019/10/19 10:55 LIVT 191055Z ///02KT 9999 SCT025 22/16 Q1016 RMK BKN SCT070 QUK 1 QUL 0 VIS MAR 20 KM VIS MIN 9999
 
LIPI - Rivolto (it-Afb), Italy
Distance from station: ONO 37km
Dati ricevuti: 18/10/2019 09:55
DATI Obsoleti
Mist, Nuvoloso
Mist, Nuvoloso
 Vento da E
Vento: E 6 km/h
Temperatura: 18°C
P.to Rugiada: 15°C
Umidità: 83%
Barometro: 1017 hPa
Summary: Mist
Nuvole: Molto nuvoloso
Visibility: 4 km
Cloud details: Parz. nuvoloso 1524 m
Molto nuvoloso 2438 m
2019/10/18 09:55 LIPI 180955Z 09003KT 4000 BR SCT050 BKN080 18/15 Q1017 RMK OVC VIS MIN 4000 WIND THR06 VRB02KT WIND THR24 VRB02KT GRN
LJPZ - Portoroz, Slovenia
Distance from station: SSE 43km
Dati ricevuti: 19/10/2019 11:30
Few Clouds
Few Clouds
 Vento da S
Vento: S 17 km/h
Temperatura: 23°C
P.to Rugiada: 14°C
Umidità: 57%
Barometro: 1016 hPa
Nuvole: Few Clouds
Visibility: 10 km
Cloud details: Few Clouds 1006 m
2019/10/19 11:30 LJPZ 191130Z 19009KT 120V240 9999 FEW033 23/14 Q1016
 
LIPA - Aviano (it/Us-Af, Italy
Distance from station: ONO 73km
Dati ricevuti: 19/10/2019 10:55
Molto nuvoloso
Molto nuvoloso
 Vento da ESE
Vento: ESE 6 km/h
Temperatura: 18°C
P.to Rugiada: 15°C
Umidità: 83%
Barometro: 1016 hPa
Nuvole: Molto nuvoloso
Visibility: 10 km
Cloud details: Few Clouds 762 m
Molto nuvoloso 1219 m
2019/10/19 10:55 LIPA 191055Z 11003KT 9999 FEW025 BKN040 18/15 Q1016 RMK BKN VIS MIN 9000NE WIND THR05 /////KT WIND THR23 /////KT A3002 BLU
LIVO - Tarvisio, Italy
Distance from station: N 73km
Dati ricevuti: 19/10/2019 10:55
Molto nuvoloso
Molto nuvoloso
 Vento da O
Vento: O 7 km/h
Temperatura: 15°C
P.to Rugiada: 10°C
Umidità: 72%
Barometro: 1016 hPa
Nuvole: Molto nuvoloso
Visibility: 10 km
Cloud details: Molto nuvoloso 762 m
2019/10/19 10:55 LIVO 191055Z 27004KT 9999 BKN025 15/10 Q1016 RMK BKN VIS MIN 9999
 
LJLJ - Ljubljana/Brnik, Slovenia
Distance from station: ENE 86km
Dati ricevuti: 19/10/2019 11:30
Molto nuvoloso
Molto nuvoloso
 Vento da Variabile
Vento: Variabile 2 km/h
Temperatura: 17°C
P.to Rugiada: 12°C
Umidità: 73%
Barometro: 1016 hPa
Nuvole: Molto nuvoloso
Visibility: 10 km
Cloud details: Few Clouds 610 m
Parz. nuvoloso 1006 m
Molto nuvoloso 1433 m
2019/10/19 11:30 LJLJ 191130Z VRB01KT 9999 FEW020 SCT033 BKN047 17/12 Q1016 NOSIG
LIPZ - Venezia/Tessera, Italy
Distance from station: OSO 96km
Dati ricevuti: 19/10/2019 11:20
Few Clouds
Few Clouds
 Vento da E
Vento: E 9 km/h
Temperatura: 20°C
P.to Rugiada: 14°C
Umidità: 69%
Barometro: 1016 hPa
Nuvole: Few Clouds
Visibility: 10 km
Cloud details: Few Clouds 610 m
2019/10/19 11:20 LIPZ 191120Z 09005KT 070V130 9999 FEW020 20/14 Q1016 NOSIG
 
LIPH - Treviso(Civ/It-A, Italy
Distance from station: OSO 105km
Dati ricevuti: 19/10/2019 11:20
Parz. nuvoloso
Parz. nuvoloso
 Vento da Variabile
Vento: Variabile 4 km/h
Temperatura: 21°C
P.to Rugiada: 15°C
Umidità: 69%
Barometro: 1016 hPa
Nuvole: Parz. nuvoloso
Visibility: 10 km
Cloud details: Parz. nuvoloso 610 m
2019/10/19 11:20 LIPH 191120Z VRB02KT 9999 SCT020 21/15 Q1016
LDRI - Rijeka/Omisalj, Croatia
Distance from station: SE 109km
Dati ricevuti: 19/10/2019 11:30
Molto nuvoloso
Molto nuvoloso
 Vento da SE
Vento: SE 19 km/h
Temperatura: 21°C
P.to Rugiada: 12°C
Umidità: 57%
Barometro: 1017 hPa
Nuvole: Molto nuvoloso
Visibility: 10 km
Cloud details: Few Clouds 305 m
Molto nuvoloso 1128 m
2019/10/19 11:30 LDRI 191130Z 14010KT 060V160 9999 FEW010 BKN037 21/12 Q1017
 
LOWK - Klagenfurt(Civ/M, Austria
Distance from station: NE 110km
Dati ricevuti: 19/10/2019 11:20
Parz. nuvoloso
Parz. nuvoloso
 Vento da SE
Vento: SE 7 km/h
Temperatura: 18°C
P.to Rugiada: 11°C
Umidità: 64%
Barometro: 1015 hPa
Nuvole: Parz. nuvoloso
Visibility: 10 km
Cloud details: Few Clouds 1219 m
Parz. nuvoloso 2134 m
2019/10/19 11:20 LOWK 191120Z 14004KT 100V190 9999 FEW040 SCT070 18/11 Q1015 BECMG 23007KT
LIPS - Istrana (it-Afb), Italy
Distance from station: O 111km
Dati ricevuti: 19/10/2019 10:55
Parz. nuvoloso
Parz. nuvoloso
 Vento da Variabile
Vento: Variabile 0 km/h
Temperatura: 20°C
P.to Rugiada: 18°C
Umidità: 88%
Barometro: 1016 hPa
Nuvole: Parz. nuvoloso
Visibility: 6 km
Cloud details: Few Clouds 457 m
Parz. nuvoloso 2743 m
2019/10/19 10:55 LIPS 191055Z /////KT 6000 FEW015 SCT090 20/18 Q1016 RMK BKN VIS MIN 6000 WIND THR26 04004KT WIND THR08 08006KT WHT
 
LDPL - Pula, Croatia
Distance from station: SSE 112km
Dati ricevuti: 19/10/2019 11:30
Parz. nuvoloso
Parz. nuvoloso
 Vento da Variabile
Vento: Variabile 13 km/h
Temperatura: 21°C
P.to Rugiada: 16°C
Umidità: 73%
Barometro: 1017 hPa
Nuvole: Parz. nuvoloso
Visibility: 10 km
Cloud details: Few Clouds 396 m
Parz. nuvoloso 579 m
2019/10/19 11:30 LDPL 191130Z VRB07KT 9999 FEW013 SCT019 21/16 Q1017 NOSIG
LIVD - Dobbiaco, Italy
Distance from station: NO 138km
Dati ricevuti: 19/10/2019 10:55
Coperto
Coperto
 Vento da E
Vento: E 9 km/h
Temperatura: 11°C
P.to Rugiada: 7°C
Umidità: 77%
Barometro: 1018 hPa
Nuvole: Coperto
Visibility: 10 km
Cloud details: Coperto 914 m
2019/10/19 10:55 LIVD 191055Z 09005KT 9999 OVC030 11/07 Q1018 RMK OVC VIS MIN 9999
 
LIPU - Padova (civ/It-A, Italy
Distance from station: OSO 139km
Dati ricevuti: 18/10/2019 06:00
DATI Obsoleti
Mist, Parz. nuvoloso
Mist, Parz. nuvoloso
 Vento da Variabile
Vento: Variabile 4 km/h
Temperatura: 15°C
P.to Rugiada: 14°C
Umidità: 94%
Barometro: 1017 hPa
Summary: Mist
Nuvole: Parz. nuvoloso
Visibility: 5 km
2019/10/18 06:00 LIPU 180600Z VRB02KT 5000 BR NSC 15/14 Q1017
LIVR - Rolle Pass, Italy
Distance from station: ONO 142km
Dati ricevuti: 19/10/2019 10:55
Pioggia leggera, Nebbia, Coperto
Pioggia leggera, Nebbia, Coperto
 Vento da S
Vento: S 20 km/h
Temperatura: 6°C
Temperatura Vento: 2°C
P.to Rugiada: 4°C
Umidità: 87%
Barometro: 1018 hPa
Summary: Pioggia leggera, Nebbia
Nuvole: Coperto
Visibility: 0 km
Cloud details: Coperto 61 m
2019/10/19 10:55 LIVR 191055Z 18011KT 0100 -RA FG OVC002 06/04 Q1018 RMK OVC MON INVIS VIS MIN 0100
 
LJCE - Cerklje, Slovenia
Distance from station: E 157km
Dati ricevuti: 19/10/2019 11:30
Few Clouds
Few Clouds
 Vento da OSO
Vento: OSO 24 km/h
Temperatura: 22°C
P.to Rugiada: 12°C
Umidità: 53%
Barometro: 1015 hPa
Nuvole: Few Clouds
Visibility: 10 km
Cloud details: Few Clouds 1372 m
2019/10/19 11:30 LJCE 191130Z 24013KT 9999 FEW045 22/12 Q1015 RMK BLU
LDLO - Losinj Island, Croatia
Distance from station: SSE 159km
Dati ricevuti: 19/10/2019 11:00
Few Clouds
Few Clouds
 Vento da SSE
Vento: SSE 17 km/h
Temperatura: 20°C
P.to Rugiada: 16°C
Umidità: 78%
Barometro: 1018 hPa
Nuvole: Few Clouds
Visibility: 10 km
Cloud details: Few Clouds 610 m
2019/10/19 11:00 LDLO 191100Z 15009KT 9999 FEW020 20/16 Q1018
 
LOXZ - Zeltweg (mil), Austria
Distance from station: NNE 179km
Dati ricevuti: 19/10/2019 11:20
Parz. nuvoloso
Parz. nuvoloso
 Vento da OSO
Vento: OSO 9 km/h
Temperatura: 19°C
P.to Rugiada: 9°C
Umidità: 52%
Barometro: 1014 hPa
Nuvole: Parz. nuvoloso
Cloud details: Few Clouds 1219 m
Parz. nuvoloso 9144 m
2019/10/19 11:20 LOXZ 191120Z 24005KT 190V280 30KM FEW040CU SCT300CI 19/09 Q1014 NOSIG
LIPB - Bolzano(Civ/It-A, Italy
Distance from station: ONO 181km
Dati ricevuti: 19/10/2019 10:50
Pioggia, Coperto
Pioggia, Coperto
 Vento da calmo
Vento: Calma
Temperatura: 14°C
P.to Rugiada: 14°C
Umidità: 100%
Barometro: 1016 hPa
Summary: Pioggia
Nuvole: Coperto
Visibility: 6 km
Cloud details: Few Clouds 610 m
Molto nuvoloso 1524 m
Coperto 1829 m
2019/10/19 10:50 LIPB 191050Z 00000KT 6000 RA FEW020 BKN050 OVC060 14/14 Q1016